createdAt,value
2018-09-26T00:01:18.090Z,10.80
2018-09-26T00:03:55.756Z,10.80
2018-09-26T00:06:26.505Z,10.80
2018-09-26T00:08:57.265Z,10.80
2018-09-26T00:11:28.202Z,10.80
2018-09-26T00:13:59.716Z,10.80
2018-09-26T00:16:30.887Z,10.80
2018-09-26T00:19:02.561Z,10.80
2018-09-26T00:21:33.400Z,10.70
2018-09-26T00:24:04.431Z,10.70
2018-09-26T00:26:36.699Z,10.70
2018-09-26T00:29:07.652Z,10.70
2018-09-26T00:31:38.827Z,10.70
2018-09-26T00:34:09.648Z,10.70
2018-09-26T00:36:40.616Z,10.70
2018-09-26T00:39:11.424Z,10.70
2018-09-26T00:41:42.408Z,10.70
2018-09-26T00:44:14.016Z,10.70
2018-09-26T00:46:44.819Z,10.60
2018-09-26T00:49:16.143Z,10.60
2018-09-26T00:51:47.734Z,10.60
2018-09-26T00:54:18.966Z,10.60
2018-09-26T00:56:50.540Z,10.50
2018-09-26T00:59:21.631Z,10.50
2018-09-26T01:01:52.290Z,10.50
2018-09-26T01:04:23.739Z,10.40
2018-09-26T01:06:54.694Z,10.40
2018-09-26T01:09:26.059Z,10.40
2018-09-26T01:11:57.070Z,10.40
2018-09-26T01:14:28.129Z,10.30
2018-09-26T01:16:58.900Z,10.30
2018-09-26T01:19:29.654Z,10.30
2018-09-26T01:22:00.809Z,10.20
2018-09-26T01:24:31.519Z,10.30
2018-09-26T01:27:02.492Z,10.20
2018-09-26T01:29:33.553Z,10.20
2018-09-26T01:32:05.858Z,10.20
2018-09-26T01:34:36.857Z,10.20
2018-09-26T01:37:07.565Z,10.20
2018-09-26T01:39:38.937Z,10.20
2018-09-26T01:42:10.457Z,10.20
2018-09-26T01:44:41.550Z,10.10
2018-09-26T01:47:12.476Z,10.10
2018-09-26T01:49:43.774Z,10.10
2018-09-26T01:52:15.039Z,10.00
2018-09-26T01:54:45.775Z,10.00
2018-09-26T01:57:17.142Z,10.00
2018-09-26T01:59:47.931Z,10.00
2018-09-26T02:02:18.808Z,9.90
2018-09-26T02:04:51.554Z,9.90
2018-09-26T02:07:22.733Z,9.90
2018-09-26T02:09:54.088Z,9.90
2018-09-26T02:12:25.102Z,9.90
2018-09-26T02:14:56.174Z,9.80
2018-09-26T02:17:26.851Z,9.80
2018-09-26T02:19:58.557Z,9.80
2018-09-26T02:22:29.631Z,9.70
2018-09-26T02:25:00.717Z,9.70
2018-09-26T02:27:31.642Z,9.70
2018-09-26T02:30:02.756Z,9.70
2018-09-26T02:32:33.903Z,9.60
2018-09-26T02:35:04.724Z,9.60
2018-09-26T02:37:35.610Z,9.60
2018-09-26T02:40:06.391Z,9.60
2018-09-26T02:42:37.235Z,9.60
2018-09-26T02:45:08.479Z,9.60
2018-09-26T02:47:39.247Z,9.60
2018-09-26T02:50:10.866Z,9.60
2018-09-26T02:52:41.996Z,9.60
2018-09-26T02:55:12.699Z,9.60
2018-09-26T02:57:43.506Z,9.50
2018-09-26T03:00:14.964Z,9.60
2018-09-26T03:02:45.977Z,9.60
2018-09-26T03:05:18.024Z,9.60
2018-09-26T03:07:49.310Z,9.60
2018-09-26T03:10:20.504Z,9.60
2018-09-26T03:12:51.575Z,9.60
2018-09-26T03:15:22.408Z,9.60
2018-09-26T03:17:55.734Z,9.60
2018-09-26T03:20:26.541Z,9.60
2018-09-26T03:22:57.309Z,9.50
2018-09-26T03:25:28.521Z,9.50
2018-09-26T03:27:59.833Z,9.50
2018-09-26T03:30:31.663Z,9.50
2018-09-26T03:33:02.451Z,9.50
2018-09-26T03:35:33.307Z,9.50
2018-09-26T03:38:04.122Z,9.50
2018-09-26T03:40:34.945Z,9.50
2018-09-26T03:43:06.470Z,9.50
2018-09-26T03:45:37.484Z,9.50
2018-09-26T03:48:08.219Z,9.50
2018-09-26T03:50:39.723Z,9.40
2018-09-26T03:53:10.446Z,9.40
2018-09-26T03:55:42.317Z,9.40
2018-09-26T03:58:13.054Z,9.40
2018-09-26T04:00:43.907Z,9.40
2018-09-26T04:03:16.050Z,9.40
2018-09-26T04:05:46.844Z,9.40
2018-09-26T04:08:18.306Z,9.30
2018-09-26T04:10:49.112Z,9.40
2018-09-26T04:13:20.874Z,9.40
2018-09-26T04:15:53.915Z,9.30
2018-09-26T04:18:25.894Z,9.30
2018-09-26T04:20:57.153Z,9.30
2018-09-26T04:23:28.289Z,9.40
2018-09-26T04:26:00.984Z,9.30
2018-09-26T04:28:33.320Z,9.30
2018-09-26T04:31:05.389Z,9.30
2018-09-26T04:33:37.059Z,9.30
2018-09-26T04:36:08.456Z,9.30
2018-09-26T04:38:40.896Z,9.30
2018-09-26T04:41:11.867Z,9.30
2018-09-26T04:43:43.461Z,9.30
2018-09-26T04:46:14.686Z,9.30
2018-09-26T04:48:45.606Z,9.30
2018-09-26T04:51:17.887Z,9.30
2018-09-26T04:53:50.599Z,9.40
2018-09-26T04:56:21.556Z,9.40
2018-09-26T04:59:10.659Z,9.40
2018-09-26T05:01:46.919Z,9.40
2018-09-26T05:04:19.832Z,9.40
2018-09-26T05:06:59.363Z,9.40
2018-09-26T05:09:30.676Z,9.50
2018-09-26T05:12:01.794Z,9.50
2018-09-26T05:14:33.089Z,9.40
2018-09-26T05:17:04.132Z,9.40
2018-09-26T05:19:34.923Z,9.50
2018-09-26T05:22:05.962Z,9.50
2018-09-26T05:24:37.173Z,9.50
2018-09-26T05:27:09.053Z,9.50
2018-09-26T05:29:40.944Z,9.50
2018-09-26T05:32:12.466Z,9.50
2018-09-26T05:34:43.567Z,9.50
2018-09-26T05:37:15.119Z,9.50
2018-09-26T05:39:47.268Z,9.50
2018-09-26T05:42:18.336Z,9.50
2018-09-26T05:44:49.396Z,9.50
2018-09-26T05:47:21.138Z,9.50
2018-09-26T05:49:52.178Z,9.60
2018-09-26T05:52:23.017Z,9.60
2018-09-26T05:54:54.161Z,9.60
2018-09-26T05:57:25.950Z,9.60
2018-09-26T05:59:56.861Z,9.60
2018-09-26T06:02:28.595Z,9.70
2018-09-26T06:04:59.296Z,9.70
2018-09-26T06:07:30.285Z,9.80
2018-09-26T06:10:00.974Z,9.80
2018-09-26T06:12:34.680Z,9.90
2018-09-26T06:15:06.028Z,9.90
2018-09-26T06:17:37.372Z,10.00
2018-09-26T06:20:08.412Z,10.00
2018-09-26T06:22:39.477Z,10.10
2018-09-26T06:25:10.750Z,10.10
2018-09-26T06:27:41.723Z,10.30
2018-09-26T06:30:12.857Z,10.40
2018-09-26T06:32:43.854Z,10.50
2018-09-26T06:35:14.693Z,10.60
2018-09-26T06:37:45.526Z,10.70
2018-09-26T06:40:16.804Z,10.70
2018-09-26T06:42:47.616Z,10.80
2018-09-26T06:45:18.789Z,10.90
2018-09-26T06:47:49.706Z,11.00
2018-09-26T06:50:21.283Z,11.10
2018-09-26T06:52:52.306Z,11.20
2018-09-26T06:55:23.329Z,11.30
2018-09-26T06:57:54.362Z,11.50
2018-09-26T07:00:25.517Z,11.60
2018-09-26T07:02:56.704Z,11.70
2018-09-26T07:05:27.664Z,11.90
2018-09-26T07:07:58.498Z,12.00
2018-09-26T07:10:31.102Z,12.10
2018-09-26T07:13:02.610Z,12.20
2018-09-26T07:15:33.349Z,12.40
2018-09-26T07:18:04.395Z,12.50
2018-09-26T07:20:35.175Z,12.60
2018-09-26T07:23:05.932Z,12.70
2018-09-26T07:25:36.865Z,12.80
2018-09-26T07:28:07.803Z,13.00
2018-09-26T07:30:38.846Z,13.10
2018-09-26T07:33:09.803Z,13.20
2018-09-26T07:35:41.117Z,13.30
2018-09-26T07:38:11.907Z,13.40
2018-09-26T07:40:42.693Z,13.50
2018-09-26T07:43:13.672Z,13.60
2018-09-26T07:45:44.731Z,13.80
2018-09-26T07:48:15.773Z,14.00
2018-09-26T07:50:46.991Z,14.20
2018-09-26T07:53:17.991Z,14.40
2018-09-26T07:55:49.106Z,14.50
2018-09-26T07:58:19.908Z,14.70
2018-09-26T08:00:50.634Z,14.90
2018-09-26T08:03:21.640Z,15.10
2018-09-26T08:05:52.649Z,15.30
2018-09-26T08:08:24.275Z,15.40
2018-09-26T08:10:56.403Z,15.60
2018-09-26T08:13:27.572Z,15.80
2018-09-26T08:15:58.268Z,15.90
2018-09-26T08:18:29.249Z,16.10
2018-09-26T08:21:01.115Z,16.30
2018-09-26T08:23:32.136Z,16.40
2018-09-26T08:26:03.170Z,16.60
2018-09-26T08:28:34.310Z,16.80
2018-09-26T08:31:05.237Z,16.90
2018-09-26T08:33:37.095Z,17.10
2018-09-26T08:36:07.836Z,17.20
2018-09-26T08:38:39.005Z,17.40
2018-09-26T08:41:09.886Z,17.50
2018-09-26T08:43:40.711Z,17.60
2018-09-26T08:46:11.986Z,17.70
2018-09-26T08:48:42.756Z,17.80
2018-09-26T08:51:13.730Z,18.00
2018-09-26T08:53:44.870Z,18.10
2018-09-26T08:56:16.117Z,18.20
2018-09-26T08:58:46.764Z,18.40
2018-09-26T09:01:22.566Z,18.50
2018-09-26T09:03:53.284Z,18.60
2018-09-26T09:06:24.269Z,18.70
2018-09-26T09:08:55.004Z,18.80
2018-09-26T09:11:26.344Z,18.90
2018-09-26T09:13:57.256Z,19.00
2018-09-26T09:16:28.447Z,19.10
2018-09-26T09:18:59.147Z,19.20
2018-09-26T09:21:30.139Z,19.30
2018-09-26T09:24:01.127Z,19.40
2018-09-26T09:26:32.176Z,19.40
2018-09-26T09:29:02.856Z,19.50
2018-09-26T09:31:33.554Z,19.60
2018-09-26T09:34:04.965Z,19.60
2018-09-26T09:36:35.673Z,19.80
2018-09-26T09:39:09.153Z,19.80
2018-09-26T09:41:39.779Z,19.90
2018-09-26T09:44:11.400Z,20.00
2018-09-26T09:46:42.444Z,20.10
2018-09-26T09:49:13.295Z,20.20
2018-09-26T09:51:44.104Z,20.20
2018-09-26T09:54:15.084Z,20.30
2018-09-26T09:56:46.022Z,20.40
2018-09-26T09:59:17.345Z,20.40
2018-09-26T10:01:48.060Z,20.50
2018-09-26T10:04:18.805Z,20.50
2018-09-26T10:06:50.587Z,20.60
2018-09-26T10:09:21.496Z,20.60
2018-09-26T10:11:58.842Z,20.60
2018-09-26T10:14:30.852Z,20.70
2018-09-26T10:17:02.259Z,20.70
2018-09-26T10:19:33.498Z,20.80
2018-09-26T10:22:05.970Z,20.80
2018-09-26T10:24:37.802Z,20.90
2018-09-26T10:27:09.596Z,20.90
2018-09-26T10:29:40.320Z,20.90
2018-09-26T10:32:11.618Z,20.90
2018-09-26T10:34:42.898Z,21.00
2018-09-26T10:37:14.104Z,21.00
2018-09-26T10:39:44.903Z,21.00
2018-09-26T10:42:15.813Z,21.00
2018-09-26T10:44:46.478Z,21.00
2018-09-26T10:47:17.211Z,21.00
2018-09-26T10:49:48.563Z,21.00
2018-09-26T10:52:19.691Z,21.00
2018-09-26T10:54:50.359Z,21.00
2018-09-26T10:57:21.301Z,21.00
2018-09-26T10:59:52.888Z,21.00
2018-09-26T11:02:23.839Z,21.10
2018-09-26T11:04:54.870Z,21.10
2018-09-26T11:07:25.870Z,21.00
2018-09-26T11:09:57.222Z,21.00
2018-09-26T11:12:27.981Z,21.00
2018-09-26T11:14:59.994Z,21.00
2018-09-26T11:17:30.718Z,21.00
2018-09-26T11:20:01.655Z,21.10
2018-09-26T11:22:33.092Z,21.10
2018-09-26T11:25:04.039Z,21.10
2018-09-26T11:27:35.119Z,21.10
2018-09-26T11:30:05.778Z,21.20
2018-09-26T11:32:36.589Z,21.20
2018-09-26T11:35:07.392Z,21.30
2018-09-26T11:37:38.409Z,21.30
2018-09-26T11:40:09.581Z,21.30
2018-09-26T11:42:40.684Z,21.30
2018-09-26T11:45:11.475Z,21.30
2018-09-26T11:47:42.265Z,21.30
2018-09-26T11:50:13.260Z,21.30
2018-09-26T11:52:44.297Z,21.30
2018-09-26T11:55:15.330Z,21.30
2018-09-26T11:57:46.353Z,21.20
2018-09-26T12:00:16.998Z,21.30
2018-09-26T12:02:48.082Z,21.20
2018-09-26T12:05:19.109Z,21.20
2018-09-26T12:07:49.994Z,21.20
2018-09-26T12:10:20.948Z,21.30
2018-09-26T12:12:52.690Z,21.20
2018-09-26T12:15:23.614Z,21.20
2018-09-26T12:17:54.442Z,21.20
2018-09-26T12:20:25.432Z,21.20
2018-09-26T12:22:56.367Z,21.20
2018-09-26T12:25:27.278Z,21.30
2018-09-26T12:27:58.724Z,21.20
2018-09-26T12:30:29.788Z,21.30
2018-09-26T12:33:00.783Z,21.20
2018-09-26T12:35:31.546Z,21.20
2018-09-26T12:38:02.370Z,21.20
2018-09-26T12:40:33.087Z,21.20
2018-09-26T12:43:03.866Z,21.20
2018-09-26T12:45:34.863Z,21.10
2018-09-26T12:48:06.233Z,21.20
2018-09-26T12:50:37.292Z,21.10
2018-09-26T12:53:13.288Z,21.10
2018-09-26T12:55:44.679Z,21.20
2018-09-26T12:58:15.691Z,21.20
2018-09-26T13:00:46.808Z,21.10
2018-09-26T13:03:17.791Z,21.10
2018-09-26T13:05:48.986Z,21.10
2018-09-26T13:08:20.643Z,21.10
2018-09-26T13:10:52.835Z,21.10
2018-09-26T13:13:26.540Z,21.10
2018-09-26T13:15:57.881Z,21.10
2018-09-26T13:18:28.630Z,21.10
2018-09-26T13:20:59.504Z,21.10
2018-09-26T13:23:30.702Z,21.10
2018-09-26T13:26:01.632Z,21.10
2018-09-26T13:28:33.256Z,21.10
2018-09-26T13:31:04.105Z,21.20
2018-09-26T13:33:34.947Z,21.20
2018-09-26T13:36:05.923Z,21.20
2018-09-26T13:38:36.812Z,21.20
2018-09-26T13:41:08.290Z,21.20
2018-09-26T13:43:38.990Z,21.20
2018-09-26T13:46:10.003Z,21.20
2018-09-26T13:48:40.804Z,21.20
2018-09-26T13:51:11.474Z,21.20
2018-09-26T13:53:42.379Z,21.20
2018-09-26T13:56:13.287Z,21.20
2018-09-26T13:58:44.391Z,21.20
2018-09-26T14:01:15.296Z,21.20
2018-09-26T14:03:45.985Z,21.20
2018-09-26T14:06:16.921Z,21.10
2018-09-26T14:08:47.804Z,21.20
2018-09-26T14:11:18.629Z,21.20
2018-09-26T14:13:49.442Z,21.10
2018-09-26T14:16:20.589Z,21.10
2018-09-26T14:18:51.714Z,21.10
2018-09-26T14:21:34.371Z,21.10
2018-09-26T14:24:05.576Z,21.10
2018-09-26T14:26:37.059Z,21.10
2018-09-26T14:29:08.338Z,21.10
2018-09-26T14:31:39.322Z,21.00
2018-09-26T14:34:11.066Z,21.10
2018-09-26T14:36:41.861Z,21.00
2018-09-26T14:39:12.933Z,21.00
2018-09-26T14:41:44.219Z,21.00
2018-09-26T14:44:15.098Z,21.00
2018-09-26T14:46:46.742Z,21.00
2018-09-26T14:49:17.837Z,21.00
2018-09-26T14:51:49.282Z,21.00
2018-09-26T14:54:20.438Z,21.00
2018-09-26T14:56:51.265Z,21.00
2018-09-26T14:59:22.488Z,20.90
2018-09-26T15:01:54.076Z,20.90
2018-09-26T15:04:24.916Z,20.90
2018-09-26T15:06:55.782Z,20.90
2018-09-26T15:09:26.970Z,20.90
2018-09-26T15:11:58.293Z,20.90
2018-09-26T15:14:29.491Z,20.90
2018-09-26T15:17:00.697Z,20.90
2018-09-26T15:19:31.764Z,20.90
2018-09-26T15:22:02.633Z,20.90
2018-09-26T15:24:34.172Z,20.90
2018-09-26T15:27:05.330Z,20.90
2018-09-26T15:29:37.187Z,20.90
2018-09-26T15:32:08.179Z,20.90
2018-09-26T15:34:40.139Z,20.80
2018-09-26T15:37:12.451Z,20.80
2018-09-26T15:39:43.338Z,20.80
2018-09-26T15:42:14.721Z,20.80
2018-09-26T15:44:45.726Z,20.80
2018-09-26T15:47:19.163Z,20.80
2018-09-26T15:49:50.744Z,20.80
2018-09-26T15:52:21.622Z,20.90
2018-09-26T15:54:52.853Z,20.80
2018-09-26T15:57:23.911Z,20.80
2018-09-26T15:59:55.419Z,20.80
2018-09-26T16:02:26.293Z,20.80
2018-09-26T16:04:57.181Z,20.80
2018-09-26T16:07:27.754Z,20.80
2018-09-26T16:09:59.045Z,20.70
2018-09-26T16:12:30.107Z,20.70
2018-09-26T16:15:01.332Z,20.70
2018-09-26T16:17:32.070Z,20.70
2018-09-26T16:20:02.778Z,20.70
2018-09-26T16:22:33.558Z,20.70
2018-09-26T16:25:04.362Z,20.60
2018-09-26T16:27:35.434Z,20.60
2018-09-26T16:30:06.417Z,20.50
2018-09-26T16:32:37.692Z,20.50
2018-09-26T16:35:09.318Z,20.40
2018-09-26T16:37:40.866Z,20.40
2018-09-26T16:40:11.698Z,20.30
2018-09-26T16:42:42.737Z,20.30
2018-09-26T16:45:14.244Z,20.20
2018-09-26T16:47:46.912Z,20.10
2018-09-26T16:50:18.546Z,20.10
2018-09-26T16:52:49.796Z,20.10
2018-09-26T16:55:22.909Z,20.00
2018-09-26T16:57:53.833Z,20.00
2018-09-26T17:00:24.553Z,19.90
2018-09-26T17:02:58.177Z,19.80
2018-09-26T17:05:30.172Z,19.80
2018-09-26T17:08:01.247Z,19.70
2018-09-26T17:10:32.369Z,19.60
2018-09-26T17:13:03.202Z,19.60
2018-09-26T17:15:34.146Z,19.50
2018-09-26T17:18:04.872Z,19.40
2018-09-26T17:20:36.942Z,19.30
2018-09-26T17:23:07.679Z,19.30
2018-09-26T17:25:38.548Z,19.20
2018-09-26T17:28:09.491Z,19.10
2018-09-26T17:30:40.538Z,19.00
2018-09-26T17:33:11.035Z,19.00
2018-09-26T17:35:42.507Z,18.90
2018-09-26T17:38:13.440Z,18.80
2018-09-26T17:40:45.010Z,18.80
2018-09-26T17:43:15.549Z,18.70
2018-09-26T17:45:46.395Z,18.60
2018-09-26T17:48:17.260Z,18.50
2018-09-26T17:50:48.239Z,18.50
2018-09-26T17:53:18.887Z,18.40
2018-09-26T17:55:49.570Z,18.30
2018-09-26T17:58:20.492Z,18.20
2018-09-26T18:00:51.832Z,18.20
2018-09-26T18:03:22.748Z,18.10
2018-09-26T18:05:53.826Z,18.00
2018-09-26T18:08:24.471Z,17.90
2018-09-26T18:10:55.024Z,17.90
2018-09-26T18:13:25.845Z,17.80
2018-09-26T18:15:57.007Z,17.80
2018-09-26T18:18:28.357Z,17.60
2018-09-26T18:20:59.341Z,17.60
2018-09-26T18:23:30.116Z,17.60
2018-09-26T18:26:02.175Z,17.50
2018-09-26T18:28:32.874Z,17.50
2018-09-26T18:31:03.880Z,17.40
2018-09-26T18:33:37.466Z,17.40
2018-09-26T18:36:09.740Z,17.30
2018-09-26T18:38:40.590Z,17.30
2018-09-26T18:41:11.663Z,17.20
2018-09-26T18:43:42.298Z,17.20
2018-09-26T18:46:13.483Z,17.10
2018-09-26T18:48:45.355Z,17.00
2018-09-26T18:51:16.429Z,17.00
2018-09-26T18:53:47.205Z,16.90
2018-09-26T18:56:17.737Z,16.90
2018-09-26T18:58:50.360Z,16.80
2018-09-26T19:01:21.462Z,16.70
2018-09-26T19:03:52.018Z,16.70
2018-09-26T19:06:22.932Z,16.60
2018-09-26T19:08:53.482Z,16.60
2018-09-26T19:11:25.322Z,16.50
2018-09-26T19:13:56.868Z,16.50
2018-09-26T19:16:27.842Z,16.40
2018-09-26T19:18:58.813Z,16.40
2018-09-26T19:21:29.623Z,16.40
2018-09-26T19:24:00.392Z,16.30
2018-09-26T19:26:31.215Z,16.30
2018-09-26T19:29:02.052Z,16.20
2018-09-26T19:31:32.817Z,16.20
2018-09-26T19:34:03.543Z,16.20
2018-09-26T19:36:34.448Z,16.10
2018-09-26T19:39:08.340Z,16.00
2018-09-26T19:41:39.265Z,15.90
2018-09-26T19:44:10.079Z,15.90
2018-09-26T19:46:40.639Z,15.80
2018-09-26T19:49:11.394Z,15.80
2018-09-26T19:51:42.215Z,15.70
2018-09-26T19:54:12.995Z,15.70
2018-09-26T19:56:44.218Z,15.70
2018-09-26T19:59:15.944Z,15.60
2018-09-26T20:01:47.007Z,15.60
2018-09-26T20:04:17.648Z,15.60
2018-09-26T20:06:48.626Z,15.50
2018-09-26T20:09:20.103Z,15.40
2018-09-26T20:11:51.924Z,15.40
2018-09-26T20:14:23.126Z,15.40
2018-09-26T20:16:54.393Z,15.30
2018-09-26T20:19:25.410Z,15.30
2018-09-26T20:21:56.936Z,15.30
2018-09-26T20:24:29.158Z,15.20
2018-09-26T20:27:00.571Z,15.20
2018-09-26T20:29:32.095Z,15.10
2018-09-26T20:32:03.161Z,15.10
2018-09-26T20:34:34.441Z,15.00
2018-09-26T20:37:05.589Z,15.00
2018-09-26T20:39:37.828Z,15.00
2018-09-26T20:42:11.919Z,14.90
2018-09-26T20:44:42.578Z,14.90
2018-09-26T20:47:14.344Z,14.90
2018-09-26T20:49:45.339Z,14.90
2018-09-26T20:52:16.317Z,14.80
2018-09-26T20:54:47.356Z,14.70
2018-09-26T20:57:18.419Z,14.70
2018-09-26T20:59:49.231Z,14.60
2018-09-26T21:02:20.123Z,14.60
2018-09-26T21:04:51.057Z,14.50
2018-09-26T21:07:22.042Z,14.50
2018-09-26T21:09:53.078Z,14.40
2018-09-26T21:12:23.777Z,14.40
2018-09-26T21:14:54.466Z,14.30
2018-09-26T21:17:25.830Z,14.30
2018-09-26T21:19:56.695Z,14.20
2018-09-26T21:22:27.651Z,14.20
2018-09-26T21:24:58.942Z,14.20
2018-09-26T21:27:30.077Z,14.20
2018-09-26T21:30:01.146Z,14.10
2018-09-26T21:32:32.118Z,14.10
2018-09-26T21:35:03.072Z,14.00
2018-09-26T21:37:33.771Z,14.00
2018-09-26T21:40:04.775Z,14.00
2018-09-26T21:42:35.625Z,13.90
2018-09-26T21:45:06.938Z,13.90
2018-09-26T21:47:37.956Z,13.90
2018-09-26T21:50:09.050Z,13.90
2018-09-26T21:52:40.982Z,13.90
2018-09-26T21:55:12.357Z,13.80
2018-09-26T21:57:43.046Z,13.70
2018-09-26T22:00:13.790Z,13.70
2018-09-26T22:02:44.606Z,13.70
2018-09-26T22:05:15.538Z,13.70
2018-09-26T22:07:46.353Z,13.70
2018-09-26T22:10:17.131Z,13.60
2018-09-26T22:12:48.587Z,13.60
2018-09-26T22:15:24.776Z,13.60
2018-09-26T22:17:55.679Z,13.60
2018-09-26T22:20:27.686Z,13.60
2018-09-26T22:22:58.701Z,13.50
2018-09-26T22:25:30.450Z,13.40
2018-09-26T22:28:01.550Z,13.40
2018-09-26T22:30:32.567Z,13.30
2018-09-26T22:33:03.628Z,13.20
2018-09-26T22:35:34.779Z,13.20
2018-09-26T22:38:05.649Z,13.20
2018-09-26T22:40:36.926Z,13.10
2018-09-26T22:43:08.065Z,13.10
2018-09-26T22:45:39.289Z,13.00
2018-09-26T22:48:10.182Z,13.10
2018-09-26T22:50:40.962Z,13.10
2018-09-26T22:53:11.754Z,13.00
2018-09-26T22:55:42.650Z,13.00
2018-09-26T22:58:13.758Z,13.00
2018-09-26T23:00:44.799Z,13.00
2018-09-26T23:03:15.752Z,12.90
2018-09-26T23:05:46.535Z,12.90
2018-09-26T23:08:17.718Z,12.90
2018-09-26T23:10:49.253Z,12.90
2018-09-26T23:13:21.317Z,12.90
2018-09-26T23:15:52.101Z,12.90
2018-09-26T23:18:24.002Z,12.90
2018-09-26T23:20:55.593Z,12.80
2018-09-26T23:23:26.662Z,12.80
2018-09-26T23:25:58.093Z,12.80
2018-09-26T23:28:28.803Z,12.80
2018-09-26T23:30:59.846Z,12.80
2018-09-26T23:33:31.051Z,12.80
2018-09-26T23:36:02.172Z,12.80
2018-09-26T23:38:33.310Z,12.80
2018-09-26T23:41:04.223Z,12.70
2018-09-26T23:43:35.409Z,12.70
2018-09-26T23:46:06.220Z,12.60
2018-09-26T23:48:37.412Z,12.60
2018-09-26T23:51:08.212Z,12.60
2018-09-26T23:53:39.087Z,12.60
2018-09-26T23:56:10.089Z,12.60
2018-09-26T23:58:40.989Z,12.50
